Lavoy, Canada
Current Conditions -  °F | °C
As of 11:00 AM on Monday 26 Jan 2015 (Local Time) from CYED Reporting Station
Few Clouds Few Clouds  
Wind Chill: 34°   Ceiling: Unl
Heat Index: 39°   Visibility: 15mi
Dew Point: 32°   Wind: 7mph
Humidity: 75%   Direction: 250°WSW
Pressure: 29.84"   Gusts: NA
Location:  53.47°N, 111.87°W
Report Text: CYED 261800Z 25006KT 15SM FEW120 FEW250 04/00 A2984 RMK AC2CI1 DA1690FT SLP127
Loading
Personal Weather Stations






























Interactive Weather Map New forecast layout! Learn more

10-Day Weather Forecast

Advertisements
Track Severe Weather on mobile